sensor_id;sensor_type;location;lat;lon;timestamp;P1;durP1;ratioP1;P2;durP2;ratioP2
71629;SDS011;59479;51.902;8.212;2023-06-26T00:00:17;5.70;;;3.80;;
71629;SDS011;59479;51.902;8.212;2023-06-26T00:02:42;6.38;;;3.95;;
71629;SDS011;59479;51.902;8.212;2023-06-26T00:05:08;6.83;;;4.03;;
71629;SDS011;59479;51.902;8.212;2023-06-26T00:07:33;5.47;;;3.60;;
71629;SDS011;59479;51.902;8.212;2023-06-26T00:09:59;5.13;;;3.50;;
71629;SDS011;59479;51.902;8.212;2023-06-26T00:12:25;5.55;;;3.38;;
71629;SDS011;59479;51.902;8.212;2023-06-26T00:14:51;5.85;;;3.72;;
71629;SDS011;59479;51.902;8.212;2023-06-26T00:17:17;6.10;;;3.70;;
71629;SDS011;59479;51.902;8.212;2023-06-26T00:19:43;5.55;;;3.50;;
71629;SDS011;59479;51.902;8.212;2023-06-26T00:22:08;6.63;;;3.95;;
71629;SDS011;59479;51.902;8.212;2023-06-26T00:24:33;5.10;;;3.20;;
71629;SDS011;59479;51.902;8.212;2023-06-26T00:26:58;5.77;;;3.80;;
71629;SDS011;59479;51.902;8.212;2023-06-26T00:29:24;5.80;;;4.00;;
71629;SDS011;59479;51.902;8.212;2023-06-26T00:31:49;6.00;;;3.90;;
71629;SDS011;59479;51.902;8.212;2023-06-26T00:34:15;6.63;;;3.53;;
71629;SDS011;59479;51.902;8.212;2023-06-26T00:36:40;5.25;;;3.80;;
71629;SDS011;59479;51.902;8.212;2023-06-26T00:39:08;5.60;;;3.47;;
71629;SDS011;59479;51.902;8.212;2023-06-26T00:41:34;5.68;;;3.53;;
71629;SDS011;59479;51.902;8.212;2023-06-26T00:44:00;5.70;;;3.53;;
71629;SDS011;59479;51.902;8.212;2023-06-26T00:46:25;6.10;;;3.80;;
71629;SDS011;59479;51.902;8.212;2023-06-26T00:48:51;6.33;;;3.87;;
71629;SDS011;59479;51.902;8.212;2023-06-26T00:51:18;6.60;;;3.70;;
71629;SDS011;59479;51.902;8.212;2023-06-26T00:53:43;5.67;;;3.60;;
71629;SDS011;59479;51.902;8.212;2023-06-26T00:56:09;5.30;;;3.53;;
71629;SDS011;59479;51.902;8.212;2023-06-26T00:58:35;5.47;;;3.50;;
71629;SDS011;59479;51.902;8.212;2023-06-26T01:01:00;6.00;;;3.42;;
71629;SDS011;59479;51.902;8.212;2023-06-26T01:03:26;6.67;;;3.60;;
71629;SDS011;59479;51.902;8.212;2023-06-26T01:05:52;7.22;;;4.03;;
71629;SDS011;59479;51.902;8.212;2023-06-26T01:08:18;6.33;;;3.53;;
71629;SDS011;59479;51.902;8.212;2023-06-26T01:10:45;6.05;;;3.80;;
71629;SDS011;59479;51.902;8.212;2023-06-26T01:13:13;5.60;;;3.90;;
71629;SDS011;59479;51.902;8.212;2023-06-26T01:15:39;6.20;;;3.50;;
71629;SDS011;59479;51.902;8.212;2023-06-26T01:18:05;6.63;;;3.50;;
71629;SDS011;59479;51.902;8.212;2023-06-26T01:20:31;5.65;;;3.63;;
71629;SDS011;59479;51.902;8.212;2023-06-26T01:28:37;5.80;;;3.60;;
71629;SDS011;59479;51.902;8.212;2023-06-26T01:31:06;6.80;;;4.15;;
71629;SDS011;59479;51.902;8.212;2023-06-26T01:33:32;5.95;;;3.67;;
71629;SDS011;59479;51.902;8.212;2023-06-26T01:35:58;5.75;;;3.70;;
71629;SDS011;59479;51.902;8.212;2023-06-26T01:38:23;6.88;;;4.07;;
71629;SDS011;59479;51.902;8.212;2023-06-26T01:40:49;5.80;;;3.90;;
71629;SDS011;59479;51.902;8.212;2023-06-26T01:43:25;5.88;;;3.50;;
71629;SDS011;59479;51.902;8.212;2023-06-26T01:45:58;6.03;;;3.75;;
71629;SDS011;59479;51.902;8.212;2023-06-26T01:48:31;6.88;;;3.88;;
71629;SDS011;59479;51.902;8.212;2023-06-26T01:51:03;6.40;;;3.97;;
71629;SDS011;59479;51.902;8.212;2023-06-26T01:53:32;6.20;;;3.83;;
71629;SDS011;59479;51.902;8.212;2023-06-26T01:56:07;6.97;;;4.10;;
71629;SDS011;59479;51.902;8.212;2023-06-26T01:58:37;6.95;;;3.80;;
71629;SDS011;59479;51.902;8.212;2023-06-26T02:01:08;5.70;;;3.88;;
71629;SDS011;59479;51.902;8.212;2023-06-26T02:03:33;6.07;;;3.65;;
71629;SDS011;59479;51.902;8.212;2023-06-26T02:05:59;5.93;;;3.60;;
71629;SDS011;59479;51.902;8.212;2023-06-26T02:08:24;6.23;;;3.77;;
71629;SDS011;59479;51.902;8.212;2023-06-26T02:10:49;6.07;;;3.73;;
71629;SDS011;59479;51.902;8.212;2023-06-26T02:13:15;6.07;;;3.80;;
71629;SDS011;59479;51.902;8.212;2023-06-26T02:15:40;6.70;;;3.83;;
71629;SDS011;59479;51.902;8.212;2023-06-26T02:18:05;6.10;;;3.83;;
71629;SDS011;59479;51.902;8.212;2023-06-26T02:20:31;6.00;;;3.50;;
71629;SDS011;59479;51.902;8.212;2023-06-26T02:22:58;5.72;;;3.70;;
71629;SDS011;59479;51.902;8.212;2023-06-26T02:25:23;5.90;;;3.85;;
71629;SDS011;59479;51.902;8.212;2023-06-26T02:27:49;6.23;;;3.30;;
71629;SDS011;59479;51.902;8.212;2023-06-26T02:30:14;6.13;;;3.63;;
71629;SDS011;59479;51.902;8.212;2023-06-26T02:32:39;6.87;;;4.13;;
71629;SDS011;59479;51.902;8.212;2023-06-26T02:35:05;6.60;;;4.20;;
71629;SDS011;59479;51.902;8.212;2023-06-26T02:37:31;6.05;;;3.78;;
71629;SDS011;59479;51.902;8.212;2023-06-26T02:39:56;5.77;;;3.47;;
71629;SDS011;59479;51.902;8.212;2023-06-26T02:42:21;7.00;;;4.00;;
71629;SDS011;59479;51.902;8.212;2023-06-26T02:44:47;6.40;;;3.50;;
71629;SDS011;59479;51.902;8.212;2023-06-26T02:47:12;6.32;;;4.28;;
71629;SDS011;59479;51.902;8.212;2023-06-26T02:49:37;7.07;;;4.00;;
71629;SDS011;59479;51.902;8.212;2023-06-26T02:52:03;5.97;;;3.40;;
71629;SDS011;59479;51.902;8.212;2023-06-26T02:54:28;5.93;;;3.67;;
71629;SDS011;59479;51.902;8.212;2023-06-26T02:56:53;6.77;;;3.83;;
71629;SDS011;59479;51.902;8.212;2023-06-26T02:59:19;6.17;;;3.50;;
71629;SDS011;59479;51.902;8.212;2023-06-26T03:01:44;6.77;;;4.00;;
71629;SDS011;59479;51.902;8.212;2023-06-26T03:04:09;5.33;;;3.60;;
71629;SDS011;59479;51.902;8.212;2023-06-26T03:06:35;5.78;;;3.38;;
71629;SDS011;59479;51.902;8.212;2023-06-26T03:09:01;7.53;;;3.73;;
71629;SDS011;59479;51.902;8.212;2023-06-26T03:11:27;6.88;;;3.58;;
71629;SDS011;59479;51.902;8.212;2023-06-26T03:13:52;6.47;;;3.63;;
71629;SDS011;59479;51.902;8.212;2023-06-26T03:16:18;6.47;;;3.83;;
71629;SDS011;59479;51.902;8.212;2023-06-26T03:18:43;7.30;;;3.53;;
71629;SDS011;59479;51.902;8.212;2023-06-26T03:21:08;5.60;;;3.27;;
71629;SDS011;59479;51.902;8.212;2023-06-26T03:23:34;6.40;;;3.75;;
71629;SDS011;59479;51.902;8.212;2023-06-26T03:25:59;5.83;;;3.40;;
71629;SDS011;59479;51.902;8.212;2023-06-26T03:28:25;6.17;;;3.60;;
71629;SDS011;59479;51.902;8.212;2023-06-26T03:30:50;5.40;;;3.33;;
71629;SDS011;59479;51.902;8.212;2023-06-26T03:33:15;5.50;;;3.25;;
71629;SDS011;59479;51.902;8.212;2023-06-26T03:35:41;5.80;;;3.20;;
71629;SDS011;59479;51.902;8.212;2023-06-26T03:38:06;5.43;;;3.53;;
71629;SDS011;59479;51.902;8.212;2023-06-26T03:40:31;6.10;;;3.63;;
71629;SDS011;59479;51.902;8.212;2023-06-26T03:42:57;5.80;;;3.70;;
71629;SDS011;59479;51.902;8.212;2023-06-26T03:45:22;6.63;;;3.53;;
71629;SDS011;59479;51.902;8.212;2023-06-26T03:47:47;7.47;;;4.13;;
71629;SDS011;59479;51.902;8.212;2023-06-26T03:50:17;5.72;;;3.28;;
71629;SDS011;59479;51.902;8.212;2023-06-26T03:52:43;7.35;;;3.97;;
71629;SDS011;59479;51.902;8.212;2023-06-26T03:55:08;7.33;;;3.57;;
71629;SDS011;59479;51.902;8.212;2023-06-26T03:57:34;5.73;;;3.90;;
71629;SDS011;59479;51.902;8.212;2023-06-26T03:59:59;6.28;;;3.55;;
71629;SDS011;59479;51.902;8.212;2023-06-26T04:02:25;6.97;;;3.77;;
71629;SDS011;59479;51.902;8.212;2023-06-26T04:04:50;7.00;;;3.63;;
71629;SDS011;59479;51.902;8.212;2023-06-26T04:07:17;6.15;;;4.00;;
71629;SDS011;59479;51.902;8.212;2023-06-26T04:09:43;6.85;;;3.60;;
71629;SDS011;59479;51.902;8.212;2023-06-26T04:12:09;6.40;;;3.70;;
71629;SDS011;59479;51.902;8.212;2023-06-26T04:14:35;6.20;;;3.63;;
71629;SDS011;59479;51.902;8.212;2023-06-26T04:17:00;6.40;;;3.63;;
71629;SDS011;59479;51.902;8.212;2023-06-26T04:19:29;6.18;;;3.70;;
71629;SDS011;59479;51.902;8.212;2023-06-26T04:21:55;5.85;;;3.45;;
71629;SDS011;59479;51.902;8.212;2023-06-26T04:24:20;6.47;;;3.50;;
71629;SDS011;59479;51.902;8.212;2023-06-26T04:26:46;7.57;;;3.60;;
71629;SDS011;59479;51.902;8.212;2023-06-26T04:29:11;5.85;;;3.22;;
71629;SDS011;59479;51.902;8.212;2023-06-26T04:31:36;7.53;;;3.90;;
71629;SDS011;59479;51.902;8.212;2023-06-26T04:34:03;6.22;;;3.80;;
71629;SDS011;59479;51.902;8.212;2023-06-26T04:36:28;5.28;;;2.92;;
71629;SDS011;59479;51.902;8.212;2023-06-26T04:38:56;6.37;;;3.20;;
71629;SDS011;59479;51.902;8.212;2023-06-26T04:41:21;6.25;;;3.70;;
71629;SDS011;59479;51.902;8.212;2023-06-26T04:43:47;5.32;;;2.78;;
71629;SDS011;59479;51.902;8.212;2023-06-26T04:46:12;5.10;;;2.97;;
71629;SDS011;59479;51.902;8.212;2023-06-26T04:48:37;7.73;;;3.47;;
71629;SDS011;59479;51.902;8.212;2023-06-26T04:51:03;4.87;;;2.90;;
71629;SDS011;59479;51.902;8.212;2023-06-26T04:53:28;4.80;;;2.83;;
71629;SDS011;59479;51.902;8.212;2023-06-26T04:55:53;5.40;;;3.07;;
71629;SDS011;59479;51.902;8.212;2023-06-26T04:58:19;6.53;;;3.30;;
71629;SDS011;59479;51.902;8.212;2023-06-26T05:00:44;5.15;;;2.65;;
71629;SDS011;59479;51.902;8.212;2023-06-26T05:03:11;4.70;;;2.73;;
71629;SDS011;59479;51.902;8.212;2023-06-26T05:05:37;4.90;;;2.63;;
71629;SDS011;59479;51.902;8.212;2023-06-26T05:08:22;5.37;;;2.70;;
71629;SDS011;59479;51.902;8.212;2023-06-26T05:10:47;5.68;;;3.10;;
71629;SDS011;59479;51.902;8.212;2023-06-26T05:13:13;5.63;;;3.07;;
71629;SDS011;59479;51.902;8.212;2023-06-26T05:15:42;4.60;;;2.67;;
71629;SDS011;59479;51.902;8.212;2023-06-26T05:18:08;5.45;;;2.95;;
71629;SDS011;59479;51.902;8.212;2023-06-26T05:20:34;5.70;;;2.88;;
71629;SDS011;59479;51.902;8.212;2023-06-26T05:23:01;4.67;;;2.63;;
71629;SDS011;59479;51.902;8.212;2023-06-26T05:25:27;6.10;;;3.45;;
71629;SDS011;59479;51.902;8.212;2023-06-26T05:27:54;6.10;;;3.03;;
71629;SDS011;59479;51.902;8.212;2023-06-26T05:30:20;5.25;;;2.97;;
71629;SDS011;59479;51.902;8.212;2023-06-26T05:32:46;4.70;;;2.63;;
71629;SDS011;59479;51.902;8.212;2023-06-26T05:35:13;6.03;;;3.03;;
71629;SDS011;59479;51.902;8.212;2023-06-26T05:37:38;5.20;;;2.90;;
71629;SDS011;59479;51.902;8.212;2023-06-26T05:40:04;5.60;;;2.85;;
71629;SDS011;59479;51.902;8.212;2023-06-26T05:42:30;6.82;;;3.05;;
71629;SDS011;59479;51.902;8.212;2023-06-26T05:44:56;6.77;;;3.23;;
71629;SDS011;59479;51.902;8.212;2023-06-26T05:47:21;7.03;;;3.28;;
71629;SDS011;59479;51.902;8.212;2023-06-26T05:49:47;6.53;;;3.13;;
71629;SDS011;59479;51.902;8.212;2023-06-26T05:52:12;5.63;;;3.17;;
71629;SDS011;59479;51.902;8.212;2023-06-26T05:54:38;5.97;;;3.35;;
71629;SDS011;59479;51.902;8.212;2023-06-26T05:57:04;6.00;;;3.20;;
71629;SDS011;59479;51.902;8.212;2023-06-26T05:59:33;6.85;;;3.38;;
71629;SDS011;59479;51.902;8.212;2023-06-26T06:02:01;6.95;;;3.92;;
71629;SDS011;59479;51.902;8.212;2023-06-26T06:04:27;7.47;;;4.07;;
71629;SDS011;59479;51.902;8.212;2023-06-26T06:06:52;6.27;;;3.30;;
71629;SDS011;59479;51.902;8.212;2023-06-26T06:09:17;7.23;;;3.67;;
71629;SDS011;59479;51.902;8.212;2023-06-26T06:11:43;6.65;;;3.70;;
71629;SDS011;59479;51.902;8.212;2023-06-26T06:14:09;5.60;;;3.03;;
71629;SDS011;59479;51.902;8.212;2023-06-26T06:16:34;6.03;;;3.03;;
71629;SDS011;59479;51.902;8.212;2023-06-26T06:18:59;5.50;;;3.30;;
71629;SDS011;59479;51.902;8.212;2023-06-26T06:21:25;7.10;;;3.43;;
71629;SDS011;59479;51.902;8.212;2023-06-26T06:23:50;5.30;;;3.33;;
71629;SDS011;59479;51.902;8.212;2023-06-26T06:26:15;6.30;;;3.30;;
71629;SDS011;59479;51.902;8.212;2023-06-26T06:28:41;6.15;;;3.20;;
71629;SDS011;59479;51.902;8.212;2023-06-26T06:31:06;5.53;;;3.13;;
71629;SDS011;59479;51.902;8.212;2023-06-26T06:33:31;6.60;;;3.80;;
71629;SDS011;59479;51.902;8.212;2023-06-26T06:35:57;6.60;;;3.57;;
71629;SDS011;59479;51.902;8.212;2023-06-26T06:38:23;5.35;;;2.83;;
71629;SDS011;59479;51.902;8.212;2023-06-26T06:40:48;6.17;;;3.37;;
71629;SDS011;59479;51.902;8.212;2023-06-26T06:43:14;6.20;;;3.40;;
71629;SDS011;59479;51.902;8.212;2023-06-26T06:45:39;8.23;;;3.80;;
71629;SDS011;59479;51.902;8.212;2023-06-26T06:48:04;7.80;;;3.60;;
71629;SDS011;59479;51.902;8.212;2023-06-26T06:50:30;5.95;;;3.17;;
71629;SDS011;59479;51.902;8.212;2023-06-26T06:52:56;6.67;;;3.60;;
71629;SDS011;59479;51.902;8.212;2023-06-26T06:55:21;5.50;;;2.90;;
71629;SDS011;59479;51.902;8.212;2023-06-26T06:57:47;5.38;;;3.10;;
71629;SDS011;59479;51.902;8.212;2023-06-26T07:00:12;6.93;;;3.20;;
71629;SDS011;59479;51.902;8.212;2023-06-26T07:02:39;6.45;;;3.22;;
71629;SDS011;59479;51.902;8.212;2023-06-26T07:05:08;7.30;;;3.75;;
71629;SDS011;59479;51.902;8.212;2023-06-26T07:07:34;6.53;;;3.28;;
71629;SDS011;59479;51.902;8.212;2023-06-26T07:10:07;6.35;;;2.78;;
71629;SDS011;59479;51.902;8.212;2023-06-26T07:12:37;6.97;;;3.13;;
71629;SDS011;59479;51.902;8.212;2023-06-26T07:15:03;6.68;;;3.22;;
71629;SDS011;59479;51.902;8.212;2023-06-26T07:17:30;6.68;;;3.25;;
71629;SDS011;59479;51.902;8.212;2023-06-26T07:19:59;6.13;;;3.20;;
71629;SDS011;59479;51.902;8.212;2023-06-26T07:22:25;7.77;;;3.10;;
71629;SDS011;59479;51.902;8.212;2023-06-26T07:24:50;5.53;;;2.93;;
71629;SDS011;59479;51.902;8.212;2023-06-26T07:27:15;6.40;;;3.30;;
71629;SDS011;59479;51.902;8.212;2023-06-26T07:29:41;6.70;;;2.97;;
71629;SDS011;59479;51.902;8.212;2023-06-26T07:32:07;6.13;;;3.00;;
71629;SDS011;59479;51.902;8.212;2023-06-26T07:34:32;5.83;;;3.47;;
71629;SDS011;59479;51.902;8.212;2023-06-26T07:36:58;6.40;;;2.95;;
71629;SDS011;59479;51.902;8.212;2023-06-26T07:39:23;6.93;;;3.67;;
71629;SDS011;59479;51.902;8.212;2023-06-26T07:41:49;5.33;;;2.90;;
71629;SDS011;59479;51.902;8.212;2023-06-26T07:44:14;7.30;;;3.17;;
71629;SDS011;59479;51.902;8.212;2023-06-26T07:46:39;7.13;;;3.07;;
71629;SDS011;59479;51.902;8.212;2023-06-26T07:49:05;6.10;;;3.13;;
71629;SDS011;59479;51.902;8.212;2023-06-26T07:51:30;7.23;;;3.70;;
71629;SDS011;59479;51.902;8.212;2023-06-26T07:53:56;6.72;;;3.35;;
71629;SDS011;59479;51.902;8.212;2023-06-26T07:56:21;7.43;;;3.70;;
71629;SDS011;59479;51.902;8.212;2023-06-26T07:58:46;5.63;;;2.83;;
71629;SDS011;59479;51.902;8.212;2023-06-26T08:01:12;5.80;;;3.27;;
71629;SDS011;59479;51.902;8.212;2023-06-26T08:03:37;8.20;;;3.57;;
71629;SDS011;59479;51.902;8.212;2023-06-26T08:06:02;6.10;;;3.53;;
71629;SDS011;59479;51.902;8.212;2023-06-26T08:08:28;5.82;;;3.22;;
71629;SDS011;59479;51.902;8.212;2023-06-26T08:10:53;5.87;;;2.97;;
71629;SDS011;59479;51.902;8.212;2023-06-26T08:13:19;6.20;;;3.70;;
71629;SDS011;59479;51.902;8.212;2023-06-26T08:15:44;7.67;;;3.53;;
71629;SDS011;59479;51.902;8.212;2023-06-26T08:18:10;5.40;;;3.15;;
71629;SDS011;59479;51.902;8.212;2023-06-26T08:20:37;8.00;;;3.53;;
71629;SDS011;59479;51.902;8.212;2023-06-26T08:23:03;5.97;;;3.58;;
71629;SDS011;59479;51.902;8.212;2023-06-26T08:25:29;5.95;;;2.70;;
71629;SDS011;59479;51.902;8.212;2023-06-26T08:27:54;7.80;;;3.13;;
71629;SDS011;59479;51.902;8.212;2023-06-26T08:30:20;6.43;;;3.67;;
71629;SDS011;59479;51.902;8.212;2023-06-26T08:32:45;8.27;;;3.40;;
71629;SDS011;59479;51.902;8.212;2023-06-26T08:37:40;7.03;;;3.55;;
71629;SDS011;59479;51.902;8.212;2023-06-26T08:40:05;7.37;;;3.97;;
71629;SDS011;59479;51.902;8.212;2023-06-26T08:42:33;6.72;;;3.10;;
71629;SDS011;59479;51.902;8.212;2023-06-26T08:44:58;6.27;;;3.60;;
71629;SDS011;59479;51.902;8.212;2023-06-26T08:47:24;8.10;;;3.35;;
71629;SDS011;59479;51.902;8.212;2023-06-26T08:49:55;6.55;;;3.35;;
71629;SDS011;59479;51.902;8.212;2023-06-26T08:52:30;6.53;;;2.83;;
71629;SDS011;59479;51.902;8.212;2023-06-26T08:55:02;6.35;;;2.97;;
71629;SDS011;59479;51.902;8.212;2023-06-26T08:57:27;7.60;;;3.03;;
71629;SDS011;59479;51.902;8.212;2023-06-26T08:59:55;5.43;;;2.92;;
71629;SDS011;59479;51.902;8.212;2023-06-26T09:02:21;8.13;;;3.10;;
71629;SDS011;59479;51.902;8.212;2023-06-26T09:04:47;6.03;;;2.67;;
71629;SDS011;59479;51.902;8.212;2023-06-26T09:07:14;6.25;;;2.70;;
71629;SDS011;59479;51.902;8.212;2023-06-26T09:09:40;5.67;;;2.50;;
71629;SDS011;59479;51.902;8.212;2023-06-26T09:12:05;6.53;;;2.40;;
71629;SDS011;59479;51.902;8.212;2023-06-26T09:14:31;6.10;;;2.60;;
71629;SDS011;59479;51.902;8.212;2023-06-26T09:16:57;5.15;;;2.80;;
71629;SDS011;59479;51.902;8.212;2023-06-26T09:19:22;5.23;;;2.87;;
71629;SDS011;59479;51.902;8.212;2023-06-26T09:21:49;5.67;;;3.07;;
71629;SDS011;59479;51.902;8.212;2023-06-26T09:24:15;6.13;;;2.72;;
71629;SDS011;59479;51.902;8.212;2023-06-26T09:26:41;5.85;;;2.60;;
71629;SDS011;59479;51.902;8.212;2023-06-26T09:29:08;6.70;;;2.92;;
71629;SDS011;59479;51.902;8.212;2023-06-26T09:31:35;6.75;;;2.75;;
71629;SDS011;59479;51.902;8.212;2023-06-26T09:34:02;4.60;;;2.60;;
71629;SDS011;59479;51.902;8.212;2023-06-26T09:36:28;8.80;;;2.72;;
71629;SDS011;59479;51.902;8.212;2023-06-26T09:38:58;6.63;;;2.45;;
71629;SDS011;59479;51.902;8.212;2023-06-26T09:41:35;6.97;;;2.85;;
71629;SDS011;59479;51.902;8.212;2023-06-26T09:44:03;5.30;;;2.37;;
71629;SDS011;59479;51.902;8.212;2023-06-26T09:46:30;6.53;;;2.80;;
71629;SDS011;59479;51.902;8.212;2023-06-26T09:49:09;5.40;;;2.80;;
71629;SDS011;59479;51.902;8.212;2023-06-26T09:51:36;6.60;;;2.88;;
71629;SDS011;59479;51.902;8.212;2023-06-26T09:54:03;4.82;;;2.40;;
71629;SDS011;59479;51.902;8.212;2023-06-26T09:56:29;5.75;;;3.08;;
71629;SDS011;59479;51.902;8.212;2023-06-26T09:58:55;5.18;;;2.40;;
71629;SDS011;59479;51.902;8.212;2023-06-26T10:01:22;4.90;;;2.20;;
71629;SDS011;59479;51.902;8.212;2023-06-26T10:03:51;6.10;;;2.50;;
71629;SDS011;59479;51.902;8.212;2023-06-26T10:06:22;7.20;;;2.72;;
71629;SDS011;59479;51.902;8.212;2023-06-26T10:09:00;5.80;;;2.53;;
71629;SDS011;59479;51.902;8.212;2023-06-26T10:11:27;5.43;;;2.65;;
71629;SDS011;59479;51.902;8.212;2023-06-26T10:14:05;4.70;;;2.35;;
71629;SDS011;59479;51.902;8.212;2023-06-26T10:16:32;4.50;;;2.33;;
71629;SDS011;59479;51.902;8.212;2023-06-26T10:19:01;6.32;;;2.85;;
71629;SDS011;59479;51.902;8.212;2023-06-26T10:21:29;4.35;;;2.42;;
71629;SDS011;59479;51.902;8.212;2023-06-26T10:23:56;5.95;;;2.67;;
71629;SDS011;59479;51.902;8.212;2023-06-26T10:26:22;6.55;;;2.97;;
71629;SDS011;59479;51.902;8.212;2023-06-26T10:28:50;5.50;;;2.60;;
71629;SDS011;59479;51.902;8.212;2023-06-26T10:31:18;4.47;;;2.28;;
71629;SDS011;59479;51.902;8.212;2023-06-26T10:33:46;6.68;;;2.47;;
71629;SDS011;59479;51.902;8.212;2023-06-26T10:36:16;4.57;;;2.33;;
71629;SDS011;59479;51.902;8.212;2023-06-26T10:38:50;4.45;;;2.00;;
71629;SDS011;59479;51.902;8.212;2023-06-26T10:41:20;4.47;;;2.00;;
71629;SDS011;59479;51.902;8.212;2023-06-26T10:46:49;5.57;;;2.60;;
71629;SDS011;59479;51.902;8.212;2023-06-26T10:49:28;4.72;;;2.40;;
71629;SDS011;59479;51.902;8.212;2023-06-26T10:51:54;4.38;;;2.05;;
71629;SDS011;59479;51.902;8.212;2023-06-26T10:54:22;4.95;;;2.13;;
71629;SDS011;59479;51.902;8.212;2023-06-26T10:56:48;4.57;;;2.33;;
71629;SDS011;59479;51.902;8.212;2023-06-26T10:59:19;4.37;;;2.00;;
71629;SDS011;59479;51.902;8.212;2023-06-26T11:01:46;4.05;;;2.00;;
71629;SDS011;59479;51.902;8.212;2023-06-26T11:04:21;4.75;;;2.15;;
71629;SDS011;59479;51.902;8.212;2023-06-26T11:07:23;4.05;;;2.00;;
71629;SDS011;59479;51.902;8.212;2023-06-26T11:10:07;4.90;;;2.28;;
71629;SDS011;59479;51.902;8.212;2023-06-26T11:12:36;5.00;;;1.97;;
71629;SDS011;59479;51.902;8.212;2023-06-26T11:15:16;5.38;;;2.53;;
71629;SDS011;59479;51.902;8.212;2023-06-26T11:17:43;4.00;;;1.90;;
71629;SDS011;59479;51.902;8.212;2023-06-26T11:20:13;3.88;;;1.80;;
71629;SDS011;59479;51.902;8.212;2023-06-26T11:22:41;5.22;;;2.00;;
71629;SDS011;59479;51.902;8.212;2023-06-26T11:25:08;4.87;;;1.80;;
71629;SDS011;59479;51.902;8.212;2023-06-26T11:30:03;3.95;;;1.73;;
71629;SDS011;59479;51.902;8.212;2023-06-26T11:32:34;5.50;;;2.15;;
71629;SDS011;59479;51.902;8.212;2023-06-26T11:35:00;4.38;;;1.60;;
71629;SDS011;59479;51.902;8.212;2023-06-26T11:37:25;3.50;;;1.63;;
71629;SDS011;59479;51.902;8.212;2023-06-26T11:39:51;3.93;;;1.50;;
71629;SDS011;59479;51.902;8.212;2023-06-26T11:42:17;4.13;;;1.63;;
71629;SDS011;59479;51.902;8.212;2023-06-26T11:44:43;4.38;;;1.73;;
71629;SDS011;59479;51.902;8.212;2023-06-26T11:47:12;3.17;;;1.80;;
71629;SDS011;59479;51.902;8.212;2023-06-26T11:49:39;4.20;;;1.90;;
71629;SDS011;59479;51.902;8.212;2023-06-26T11:52:07;4.53;;;1.58;;
71629;SDS011;59479;51.902;8.212;2023-06-26T11:54:33;4.10;;;2.03;;
71629;SDS011;59479;51.902;8.212;2023-06-26T11:56:58;3.97;;;1.87;;
71629;SDS011;59479;51.902;8.212;2023-06-26T11:59:34;3.53;;;1.60;;
71629;SDS011;59479;51.902;8.212;2023-06-26T12:02:06;5.18;;;1.92;;
71629;SDS011;59479;51.902;8.212;2023-06-26T12:04:32;3.53;;;1.77;;
71629;SDS011;59479;51.902;8.212;2023-06-26T12:07:00;3.42;;;1.77;;
71629;SDS011;59479;51.902;8.212;2023-06-26T12:09:29;3.13;;;1.60;;
71629;SDS011;59479;51.902;8.212;2023-06-26T12:11:55;4.65;;;1.80;;
71629;SDS011;59479;51.902;8.212;2023-06-26T12:14:22;5.68;;;1.60;;
71629;SDS011;59479;51.902;8.212;2023-06-26T12:16:48;3.40;;;1.60;;
71629;SDS011;59479;51.902;8.212;2023-06-26T12:19:14;4.38;;;1.83;;
71629;SDS011;59479;51.902;8.212;2023-06-26T12:24:06;3.60;;;1.47;;
71629;SDS011;59479;51.902;8.212;2023-06-26T12:26:32;3.63;;;1.70;;
71629;SDS011;59479;51.902;8.212;2023-06-26T12:29:09;4.10;;;1.50;;
71629;SDS011;59479;51.902;8.212;2023-06-26T12:31:42;3.85;;;1.52;;
71629;SDS011;59479;51.902;8.212;2023-06-26T12:34:09;3.42;;;1.95;;
71629;SDS011;59479;51.902;8.212;2023-06-26T12:36:39;3.47;;;1.48;;
71629;SDS011;59479;51.902;8.212;2023-06-26T12:39:10;3.83;;;1.85;;
71629;SDS011;59479;51.902;8.212;2023-06-26T12:41:59;3.40;;;1.40;;
71629;SDS011;59479;51.902;8.212;2023-06-26T12:44:26;3.50;;;1.60;;
71629;SDS011;59479;51.902;8.212;2023-06-26T12:46:54;4.35;;;1.52;;
71629;SDS011;59479;51.902;8.212;2023-06-26T12:49:41;3.30;;;1.50;;
71629;SDS011;59479;51.902;8.212;2023-06-26T12:52:09;4.10;;;1.65;;
71629;SDS011;59479;51.902;8.212;2023-06-26T12:54:36;3.60;;;1.65;;
71629;SDS011;59479;51.902;8.212;2023-06-26T12:57:03;4.40;;;1.50;;
71629;SDS011;59479;51.902;8.212;2023-06-26T12:59:29;4.10;;;1.50;;
71629;SDS011;59479;51.902;8.212;2023-06-26T13:01:55;3.75;;;1.83;;
71629;SDS011;59479;51.902;8.212;2023-06-26T13:04:21;4.60;;;1.50;;
71629;SDS011;59479;51.902;8.212;2023-06-26T13:06:46;3.07;;;1.43;;
71629;SDS011;59479;51.902;8.212;2023-06-26T13:09:11;3.63;;;1.50;;
71629;SDS011;59479;51.902;8.212;2023-06-26T13:11:37;3.60;;;1.45;;
71629;SDS011;59479;51.902;8.212;2023-06-26T13:14:03;3.83;;;1.83;;
71629;SDS011;59479;51.902;8.212;2023-06-26T13:16:29;3.38;;;1.80;;
71629;SDS011;59479;51.902;8.212;2023-06-26T13:18:54;3.20;;;1.50;;
71629;SDS011;59479;51.902;8.212;2023-06-26T13:21:21;3.95;;;1.52;;
71629;SDS011;59479;51.902;8.212;2023-06-26T13:23:46;3.70;;;1.40;;
71629;SDS011;59479;51.902;8.212;2023-06-26T13:26:12;3.17;;;1.27;;
71629;SDS011;59479;51.902;8.212;2023-06-26T13:28:37;3.40;;;1.60;;
71629;SDS011;59479;51.902;8.212;2023-06-26T13:31:06;3.75;;;1.58;;
71629;SDS011;59479;51.902;8.212;2023-06-26T13:33:31;3.83;;;1.57;;
71629;SDS011;59479;51.902;8.212;2023-06-26T13:35:56;3.50;;;1.50;;
71629;SDS011;59479;51.902;8.212;2023-06-26T13:38:22;3.25;;;1.40;;
71629;SDS011;59479;51.902;8.212;2023-06-26T13:40:53;3.00;;;1.30;;
71629;SDS011;59479;51.902;8.212;2023-06-26T13:43:22;3.47;;;1.45;;
71629;SDS011;59479;51.902;8.212;2023-06-26T13:45:48;2.70;;;1.17;;
71629;SDS011;59479;51.902;8.212;2023-06-26T13:48:15;4.75;;;1.70;;
71629;SDS011;59479;51.902;8.212;2023-06-26T13:50:41;3.67;;;1.97;;
71629;SDS011;59479;51.902;8.212;2023-06-26T13:53:09;3.37;;;1.40;;
71629;SDS011;59479;51.902;8.212;2023-06-26T13:55:35;3.05;;;1.40;;
71629;SDS011;59479;51.902;8.212;2023-06-26T13:58:00;3.20;;;1.47;;
71629;SDS011;59479;51.902;8.212;2023-06-26T14:00:30;3.65;;;1.40;;
71629;SDS011;59479;51.902;8.212;2023-06-26T14:02:55;4.13;;;1.27;;
71629;SDS011;59479;51.902;8.212;2023-06-26T14:05:21;3.00;;;1.20;;
71629;SDS011;59479;51.902;8.212;2023-06-26T14:07:48;3.22;;;1.10;;
71629;SDS011;59479;51.902;8.212;2023-06-26T14:10:13;3.20;;;1.10;;
71629;SDS011;59479;51.902;8.212;2023-06-26T14:12:39;3.10;;;1.20;;
71629;SDS011;59479;51.902;8.212;2023-06-26T14:15:05;3.10;;;1.30;;
71629;SDS011;59479;51.902;8.212;2023-06-26T14:17:31;3.00;;;1.50;;
71629;SDS011;59479;51.902;8.212;2023-06-26T14:19:56;3.07;;;1.20;;
71629;SDS011;59479;51.902;8.212;2023-06-26T14:22:22;3.77;;;1.17;;
71629;SDS011;59479;51.902;8.212;2023-06-26T14:24:48;2.70;;;1.17;;
71629;SDS011;59479;51.902;8.212;2023-06-26T14:27:14;3.70;;;1.27;;
71629;SDS011;59479;51.902;8.212;2023-06-26T14:29:39;3.33;;;1.40;;
71629;SDS011;59479;51.902;8.212;2023-06-26T14:32:05;2.60;;;1.10;;
71629;SDS011;59479;51.902;8.212;2023-06-26T14:34:31;2.50;;;0.90;;
71629;SDS011;59479;51.902;8.212;2023-06-26T14:36:56;2.90;;;1.20;;
71629;SDS011;59479;51.902;8.212;2023-06-26T14:39:21;2.77;;;1.10;;
71629;SDS011;59479;51.902;8.212;2023-06-26T14:41:47;2.95;;;1.20;;
71629;SDS011;59479;51.902;8.212;2023-06-26T14:44:13;4.70;;;0.80;;
71629;SDS011;59479;51.902;8.212;2023-06-26T14:46:38;3.50;;;1.48;;
71629;SDS011;59479;51.902;8.212;2023-06-26T14:49:04;2.80;;;1.00;;
71629;SDS011;59479;51.902;8.212;2023-06-26T14:51:29;2.90;;;1.43;;
71629;SDS011;59479;51.902;8.212;2023-06-26T14:53:55;2.63;;;0.97;;
71629;SDS011;59479;51.902;8.212;2023-06-26T14:56:20;2.63;;;1.00;;
71629;SDS011;59479;51.902;8.212;2023-06-26T14:58:45;3.27;;;1.10;;
71629;SDS011;59479;51.902;8.212;2023-06-26T15:01:14;3.10;;;1.10;;